Terminal Aerodrome Forecast
Issued by NWS

Home | Current Version | Previous Version | Text Only | Print | Product List | Glossary On
Versions: 1 2 3 4 5 6 7 8 9 10 11 12 13 14 15
000
FTUS45 KRIW 020206 AAA
TAFRKS
TAF AMD
KRKS 020206Z 0202/0224 17009KT P6SM VCSH SCT100 BKN140
     FM020700 18007KT P6SM SCT110
     FM022000 23015G25KT P6SM FEW100=

USA.gov is the U.S. government's official web portal to all federal, state and local government web resources and services.